San Carlos De Bariloche Airport
SAZS : rendu visible

Aérodrome :











RETROUVEZ-NOUS SUR...

 
LOGIN :

S'inscrire | Disclaimer

   EN    FR    IT 

 









Légende :    VFR   VFR Marginal   IFR   IFR Intensif   IFR Très Intensif
Visi : 
Plafond : 
>= 8 km
>= 3000ft
5 à 8 km
1000 à 3000 ft
1500m à 5 km
500 à 1000 ft
800 à 1500m
200 à 500 ft
< 800m
< 200 ft
Symboles :   Orages  Brouillard  Fortes neiges  Fortes précipitations  Vent > 20 kt






- Altitude de l'aérodrome : 2774 ft
- Code IATA : BRC


SAZS - San Carlos De Bariloche

DERNIER METAR :
  • 271800Z 29025KT 9999 SCT028 SCT037 08/M01 Q1008

METARs EXPIRÉS :
  • 271700Z 31026KT 9999 BKN023 SCT030 08/00 Q1007
  • 271600Z 31024G34KT 9999 BKN018 SCT025 07/00 Q1008

TAF TAF SAZS
Valide du 27 à 18h jusqu'au 28 à 18h UTC


271700Z 2718/2818 31025G35KT 9999 BKN025 TX08/2719Z TN04/2810Z
PROB30
TEMPO 2718/2806 8000 -SHRA
BECMG 2800/2802 29015KT
BECMG 2810/2813 31020G30KT CAVOK
FIR SAEF / Amérique du Sud



MET'MAP, la Météo Aéronautique d'un coup d'oeil ! - Copyright ORBIFLY Décembre 2007 - Disclaimer

ORBIFLY MET'MAP TEAM :

Programmation & Développement : Alexandra Zaïnal
Sur une idée originale de : Baudouin d'Aumeries
Assistance à la programmation : Marc-Olivier Méhu
Soutien technique & logistique : Manuel Goepfert

Contact : metmap@orbifly.com




SOURCES & CREDITS :

   NOAA       Earth
Advisory